Time;durP1;ratioP1;P1;durP2;ratioP2;P2;SDS_P1;SDS_P2;PMS_P1;PMS_P2;Temp;Humidity;BMP_temperature;BMP_pressure;BME280_temperature;BME280_humidity;BME280_pressure;Samples;Min_cycle;Max_cycle;Signal;HPM_P1;HPM_P2
2021/06/27 00:01:19;;;;;;;8.13;5.22;;;21.30;99.90;;;;;;5016069;28;20474;-68
2021/06/27 00:03:45;;;;;;;7.90;5.60;;;21.30;99.90;;;;;;5015695;28;20084;-68
2021/06/27 00:06:11;;;;;;;7.03;5.78;;;21.20;99.90;;;;;;4998550;28;20041;-68
2021/06/27 00:08:38;;;;;;;6.95;5.65;;;21.10;99.90;;;;;;4998601;28;20038;-70
2021/06/27 00:11:07;;;;;;;6.90;5.15;;;21.00;99.90;;;;;;4998579;28;20073;-68
2021/06/27 00:13:36;;;;;;;7.80;5.60;;;21.10;99.90;;;;;;5015865;28;20046;-68
2021/06/27 00:16:02;;;;;;;7.50;6.00;;;21.00;99.90;;;;;;5015736;28;20113;-68
2021/06/27 00:18:29;;;;;;;5.82;5.05;;;20.90;99.90;;;;;;4998222;28;20061;-68
2021/06/27 00:20:59;;;;;;;8.52;5.60;;;20.70;99.90;;;;;;4998119;28;20088;-67
2021/06/27 00:23:29;;;;;;;9.18;5.75;;;20.80;99.90;;;;;;5015749;28;20517;-68
2021/06/27 00:25:59;;;;;;;7.65;5.00;;;20.80;99.90;;;;;;5015986;28;20449;-68
2021/06/27 00:28:25;;;;;;;6.18;4.95;;;20.70;99.90;;;;;;4998414;28;20034;-68
2021/06/27 00:30:52;;;;;;;8.60;5.65;;;20.60;99.90;;;;;;5015213;28;20033;-69
2021/06/27 00:33:19;;;;;;;6.68;4.78;;;20.50;99.90;;;;;;5015370;28;20038;-69
2021/06/27 00:35:45;;;;;;;10.43;6.50;;;20.50;99.90;;;;;;4997920;28;20431;-69
2021/06/27 00:38:12;;;;;;;8.27;5.68;;;20.60;99.90;;;;;;5015405;28;20045;-67
2021/06/27 00:40:38;;;;;;;8.73;6.30;;;20.50;99.90;;;;;;5015530;28;20415;-68
2021/06/27 00:43:06;;;;;;;11.20;6.97;;;20.50;99.90;;;;;;4997791;28;20065;-67
2021/06/27 00:45:33;;;;;;;8.07;6.10;;;20.50;99.90;;;;;;5015349;28;20479;-67
2021/06/27 00:48:00;;;;;;;92.15;57.55;;;20.50;99.90;;;;;;5015115;28;20076;-68
2021/06/27 00:50:49;;;;;;;25.15;18.50;;;20.40;99.90;;;;;;5015289;28;20045;-68
2021/06/27 00:53:15;;;;;;;7.47;5.65;;;20.30;99.90;;;;;;5012275;28;20042;-68
2021/06/27 00:55:42;;;;;;;8.57;6.13;;;20.30;99.90;;;;;;4997455;28;20069;-68
2021/06/27 00:58:08;;;;;;;7.07;5.95;;;20.30;99.90;;;;;;4997656;28;20121;-68
2021/06/27 01:00:41;;;;;;;10.63;6.60;;;20.20;99.90;;;;;;5014957;28;20064;-68
2021/06/27 01:03:07;;;;;;;7.72;6.25;;;20.30;99.90;;;;;;4997233;28;20129;-68
2021/06/27 01:05:38;;;;;;;11.73;6.68;;;20.20;99.90;;;;;;5014124;28;20058;-68
2021/06/27 01:08:05;;;;;;;8.70;6.10;;;20.30;99.90;;;;;;4997405;28;20038;-68
2021/06/27 01:10:32;;;;;;;7.88;6.00;;;20.40;99.90;;;;;;5014916;28;20030;-68
2021/06/27 01:12:58;;;;;;;9.27;6.22;;;20.40;99.90;;;;;;4997452;28;20056;-68
2021/06/27 01:15:24;;;;;;;8.00;6.35;;;20.40;99.90;;;;;;4997593;28;20542;-69
2021/06/27 01:17:54;;;;;;;11.18;6.60;;;20.30;99.90;;;;;;5014494;28;20116;-69
2021/06/27 01:20:27;;;;;;;7.82;5.97;;;20.30;99.90;;;;;;5015291;28;20022;-68
2021/06/27 01:22:55;;;;;;;10.73;6.18;;;20.20;99.90;;;;;;5014389;28;20056;-68
2021/06/27 01:25:32;;;;;;;8.02;5.88;;;20.20;99.90;;;;;;4997172;28;20034;-68
2021/06/27 01:27:58;;;;;;;11.70;6.38;;;20.20;99.90;;;;;;5014528;28;20068;-68
2021/06/27 01:30:27;;;;;;;8.02;6.10;;;20.10;99.90;;;;;;4997028;28;20603;-68
2021/06/27 01:32:56;;;;;;;7.90;5.95;;;20.10;99.90;;;;;;5014465;28;20048;-69
2021/06/27 01:35:25;;;;;;;8.63;6.10;;;20.00;99.90;;;;;;5014657;28;20036;-69
2021/06/27 01:37:54;;;;;;;7.38;5.68;;;20.10;99.90;;;;;;4997186;28;20084;-67
2021/06/27 01:40:28;;;;;;;10.18;6.82;;;20.20;99.90;;;;;;5014337;28;20145;-69
2021/06/27 01:43:30;;;;;;;8.48;5.85;;;20.20;99.90;;;;;;4996759;28;20068;-68
2021/06/27 01:46:01;;;;;;;8.93;6.47;;;20.20;99.90;;;;;;5011143;28;20046;-68
2021/06/27 01:48:29;;;;;;;7.25;5.47;;;20.10;99.90;;;;;;4997477;28;20096;-68
2021/06/27 01:50:59;;;;;;;9.13;5.85;;;20.20;99.90;;;;;;5014048;28;20118;-68
2021/06/27 01:53:31;;;;;;;6.97;5.28;;;20.30;99.90;;;;;;4996666;28;20386;-68
2021/06/27 01:56:05;;;;;;;7.95;6.00;;;20.30;99.90;;;;;;5013961;28;20030;-67
2021/06/27 01:58:42;;;;;;;9.40;5.30;;;20.40;99.90;;;;;;4997440;28;20042;-68
2021/06/27 02:01:16;;;;;;;9.15;5.97;;;20.40;99.90;;;;;;5013992;28;20030;-69
2021/06/27 02:03:42;;;;;;;9.30;6.38;;;20.40;99.90;;;;;;5013442;28;20109;-68
2021/06/27 02:06:09;;;;;;;7.82;5.75;;;20.30;99.90;;;;;;5013837;28;20030;-68
2021/06/27 02:08:42;;;;;;;7.93;6.15;;;20.20;99.90;;;;;;5013869;28;20470;-69
2021/06/27 02:11:13;;;;;;;7.25;5.50;;;20.20;99.90;;;;;;4996618;28;20571;-68
2021/06/27 02:13:39;;;;;;;;;;;20.10;99.90;;;;;;4996759;28;20036;-68
2021/06/27 02:16:06;;;;;;;7.85;5.72;;;20.20;99.90;;;;;;5013624;28;20220;-68
2021/06/27 02:18:44;;;;;;;8.70;5.90;;;20.20;99.90;;;;;;5013377;28;20030;-68
2021/06/27 02:21:18;;;;;;;8.20;5.78;;;20.20;99.90;;;;;;4998274;28;20030;-68
2021/06/27 02:23:45;;;;;;;9.25;5.85;;;20.20;99.90;;;;;;4996875;28;20498;-68
2021/06/27 02:26:11;;;;;;;8.88;5.50;;;20.10;99.90;;;;;;4996369;28;20065;-68
2021/06/27 02:28:37;;;;;;;8.18;5.82;;;20.10;99.90;;;;;;4979864;28;20041;-68
2021/06/27 02:31:04;;;;;;;8.57;6.10;;;20.10;99.90;;;;;;5013256;28;20483;-68
2021/06/27 02:33:30;;;;;;;7.43;5.90;;;20.10;99.90;;;;;;4996095;28;20034;-69
2021/06/27 02:35:57;;;;;;;8.82;5.97;;;20.00;99.90;;;;;;5013157;28;20479;-68
2021/06/27 02:38:23;;;;;;;10.25;6.32;;;20.00;99.90;;;;;;4995943;28;20038;-68
2021/06/27 02:40:50;;;;;;;8.20;6.22;;;19.90;99.90;;;;;;4995968;28;20122;-68
2021/06/27 02:43:18;;;;;;;8.80;6.18;;;19.90;99.90;;;;;;5012941;28;20506;-68
2021/06/27 02:45:45;;;;;;;10.52;6.82;;;19.70;99.90;;;;;;4995638;28;20383;-68
2021/06/27 02:48:11;;;;;;;9.57;6.38;;;19.70;99.90;;;;;;5013082;28;20026;-68
2021/06/27 02:50:38;;;;;;;9.18;6.82;;;19.70;99.90;;;;;;5012853;28;20052;-68
2021/06/27 02:53:07;;;;;;;9.25;6.38;;;19.70;99.90;;;;;;5013242;28;20037;-68
2021/06/27 02:55:33;;;;;;;10.32;5.72;;;19.80;99.90;;;;;;4995508;28;20037;-69
2021/06/27 02:57:58;;;;;;;7.80;5.93;;;19.80;99.90;;;;;;5012652;28;20037;-69
2021/06/27 03:00:25;;;;;;;9.60;6.05;;;19.90;99.90;;;;;;5013006;28;20034;-69
2021/06/27 03:02:51;;;;;;;12.00;6.40;;;19.90;99.90;;;;;;4995430;28;20372;-69
2021/06/27 03:05:18;;;;;;;9.90;6.30;;;19.90;99.90;;;;;;4995187;28;20046;-69
2021/06/27 03:07:44;;;;;;;8.70;6.20;;;19.90;99.90;;;;;;5011345;28;20037;-69
2021/06/27 03:10:13;;;;;;;11.32;6.57;;;19.80;99.90;;;;;;5012715;28;20054;-68
2021/06/27 03:12:45;;;;;;;10.63;5.95;;;19.90;99.90;;;;;;5012863;28;20112;-68
2021/06/27 03:15:13;;;;;;;9.75;6.30;;;19.70;99.90;;;;;;5012618;28;20129;-68
2021/06/27 03:17:39;;;;;;;11.35;6.85;;;19.80;99.90;;;;;;5012935;28;20040;-68
2021/06/27 03:20:08;;;;;;;8.23;6.00;;;19.70;99.90;;;;;;4994984;28;20549;-68
2021/06/27 03:22:34;;;;;;;7.80;6.63;;;19.70;99.90;;;;;;5012628;28;20026;-68
2021/06/27 03:25:00;;;;;;;9.63;6.72;;;19.60;99.90;;;;;;4994859;28;20042;-67
2021/06/27 03:27:26;;;;;;;9.60;6.65;;;19.50;99.90;;;;;;4978911;28;20084;-68
2021/06/27 03:29:52;;;;;;;8.73;6.32;;;19.50;99.90;;;;;;4978658;28;20030;-68
2021/06/27 03:32:18;;;;;;;10.63;7.15;;;19.50;99.90;;;;;;5012472;28;20038;-68
2021/06/27 03:34:44;;;;;;;14.80;6.97;;;19.40;99.90;;;;;;4994651;28;20087;-68
2021/06/27 03:37:10;;;;;;;9.43;6.75;;;19.50;99.90;;;;;;5012655;28;20034;-68
2021/06/27 03:39:36;;;;;;;10.43;7.40;;;19.40;99.90;;;;;;5012332;28;20034;-68
2021/06/27 03:42:02;;;;;;;9.55;6.57;;;19.40;99.90;;;;;;5012265;28;20030;-68
2021/06/27 03:44:29;;;;;;;8.65;6.18;;;19.40;99.90;;;;;;5012301;28;20041;-68
2021/06/27 03:46:56;;;;;;;11.07;6.63;;;19.40;99.90;;;;;;4995102;28;20034;-68
2021/06/27 03:49:23;;;;;;;11.52;7.28;;;19.40;99.90;;;;;;4994959;28;20097;-68
2021/06/27 03:51:49;;;;;;;9.15;6.65;;;19.40;99.90;;;;;;4994557;28;20034;-68
2021/06/27 03:54:17;;;;;;;11.25;7.10;;;19.50;99.90;;;;;;4994916;28;20475;-69
2021/06/27 03:56:43;;;;;;;12.07;7.47;;;19.50;99.90;;;;;;5011919;28;20026;-69
2021/06/27 03:59:10;;;;;;;13.00;6.53;;;19.50;99.90;;;;;;5012843;28;20429;-68
2021/06/27 04:01:36;;;;;;;10.45;7.25;;;19.40;99.90;;;;;;4994584;28;20042;-68
2021/06/27 04:04:03;;;;;;;16.02;7.65;;;19.30;99.90;;;;;;4994625;28;20038;-68
2021/06/27 04:06:29;;;;;;;10.13;7.43;;;19.30;99.90;;;;;;5012142;28;20040;-68
2021/06/27 04:08:55;;;;;;;10.25;6.95;;;19.20;99.90;;;;;;5012299;28;20029;-68
2021/06/27 04:11:21;;;;;;;12.75;7.30;;;19.30;99.90;;;;;;5012020;28;20037;-68
2021/06/27 04:13:47;;;;;;;10.75;7.22;;;19.40;99.90;;;;;;4994286;28;20034;-68
2021/06/27 04:16:13;;;;;;;9.38;7.13;;;19.50;99.90;;;;;;4994576;28;20060;-68
2021/06/27 04:18:40;;;;;;;9.05;6.47;;;19.40;99.90;;;;;;5011904;28;20149;-68
2021/06/27 04:21:07;;;;;;;10.15;7.07;;;19.50;99.90;;;;;;5012033;28;20042;-67
2021/06/27 04:23:37;;;;;;;9.77;6.80;;;19.50;99.90;;;;;;4994611;28;20058;-67
2021/06/27 04:26:03;;;;;;;10.45;7.15;;;19.60;99.90;;;;;;5011699;28;20617;-68
2021/06/27 04:28:29;;;;;;;10.40;6.85;;;19.50;99.90;;;;;;5012227;28;20041;-69
2021/06/27 04:30:54;;;;;;;9.93;6.85;;;19.50;99.90;;;;;;5011652;28;20387;-69
2021/06/27 04:33:20;;;;;;;10.07;6.68;;;19.40;99.90;;;;;;5012000;28;20045;-68
2021/06/27 04:35:47;;;;;;;9.63;7.22;;;19.40;99.90;;;;;;5011576;28;20587;-67
2021/06/27 04:38:17;;;;;;;10.98;7.30;;;19.40;99.90;;;;;;5011878;28;20041;-68
2021/06/27 04:40:44;;;;;;;10.20;6.75;;;19.50;99.90;;;;;;4995258;28;20034;-68
2021/06/27 04:43:09;;;;;;;12.88;7.32;;;19.40;99.90;;;;;;5015377;28;20038;-68
2021/06/27 04:45:40;;;;;;;12.18;7.35;;;19.40;99.90;;;;;;5015606;28;20513;-68
2021/06/27 04:48:08;;;;;;;8.80;6.30;;;19.50;99.90;;;;;;4998089;28;20046;-68
2021/06/27 04:50:35;;;;;;;11.88;7.13;;;19.60;99.90;;;;;;4997966;28;20038;-68
2021/06/27 04:53:01;;;;;;;12.27;8.00;;;19.60;99.90;;;;;;4997521;28;20088;-67
2021/06/27 04:55:27;;;;;;;14.43;6.85;;;19.60;99.90;;;;;;5014955;28;20030;-67
2021/06/27 04:57:53;;;;;;;9.15;6.88;;;19.60;99.90;;;;;;5015105;28;20576;-67
2021/06/27 05:00:19;;;;;;;11.55;7.70;;;19.70;99.90;;;;;;5014973;28;20438;-68
2021/06/27 05:02:44;;;;;;;8.98;6.38;;;19.70;99.90;;;;;;5014914;28;20034;-68
2021/06/27 05:05:13;;;;;;;9.40;7.43;;;19.70;99.90;;;;;;5033138;28;20397;-68
2021/06/27 05:07:39;;;;;;;13.32;7.93;;;19.60;99.90;;;;;;5022346;28;20144;-69
2021/06/27 05:10:07;;;;;;;10.65;7.03;;;19.60;99.90;;;;;;5034478;28;20116;-65
2021/06/27 05:12:33;;;;;;;11.30;7.43;;;19.70;99.90;;;;;;5034695;28;20433;-66
2021/06/27 05:14:59;;;;;;;10.18;7.45;;;19.80;99.90;;;;;;5034511;28;20488;-65
2021/06/27 05:17:25;;;;;;;9.05;7.03;;;19.70;99.90;;;;;;5034652;28;20033;-65
2021/06/27 05:19:51;;;;;;;10.70;7.60;;;19.50;99.90;;;;;;5034346;28;20029;-65
2021/06/27 05:22:17;;;;;;;10.90;7.60;;;19.60;99.90;;;;;;5034347;28;20421;-65
2021/06/27 05:24:43;;;;;;;9.60;7.13;;;19.80;99.90;;;;;;5034667;28;20441;-66
2021/06/27 05:27:09;;;;;;;11.35;6.80;;;20.00;99.90;;;;;;5034344;28;20033;-65
2021/06/27 05:29:35;;;;;;;11.02;7.18;;;20.00;99.90;;;;;;5034552;28;20394;-65
2021/06/27 05:32:02;;;;;;;11.35;7.63;;;20.00;99.90;;;;;;5034130;28;20493;-66
2021/06/27 05:34:29;;;;;;;12.48;7.43;;;20.10;99.90;;;;;;5033015;28;20029;-65
2021/06/27 05:36:57;;;;;;;12.77;7.70;;;20.20;99.90;;;;;;5033943;28;20120;-66
2021/06/27 05:39:23;;;;;;;10.20;7.57;;;20.30;99.90;;;;;;5028056;28;20029;-66
2021/06/27 05:41:49;;;;;;;9.45;7.18;;;20.30;99.90;;;;;;5025672;28;20029;-66
2021/06/27 05:44:16;;;;;;;10.82;7.25;;;20.50;99.90;;;;;;5033726;28;20044;-65
2021/06/27 05:46:42;;;;;;;11.52;7.47;;;20.60;99.90;;;;;;5033862;28;20034;-66
2021/06/27 05:49:08;;;;;;;8.93;6.97;;;20.70;99.90;;;;;;5033975;28;20044;-66
2021/06/27 05:51:40;;;;;;;9.43;6.63;;;20.70;99.90;;;;;;5032652;28;20037;-66
2021/06/27 05:54:08;;;;;;;12.52;7.03;;;20.90;99.90;;;;;;5049027;28;20033;-65
2021/06/27 05:56:35;;;;;;;8.63;6.60;;;21.10;99.90;;;;;;5033587;28;20480;-65
2021/06/27 05:59:02;;;;;;;7.97;5.80;;;21.30;99.90;;;;;;5033416;28;20048;-65
2021/06/27 06:01:27;;;;;;;7.93;5.95;;;21.40;99.90;;;;;;5033711;28;20040;-66
2021/06/27 06:03:53;;;;;;;8.65;5.97;;;21.50;99.90;;;;;;5033221;28;20053;-66
2021/06/27 06:06:19;;;;;;;7.28;5.82;;;21.60;99.90;;;;;;5033698;28;20109;-66
2021/06/27 06:08:46;;;;;;;10.40;6.35;;;21.80;99.90;;;;;;5033673;28;20057;-65
2021/06/27 06:11:17;;;;;;;12.82;6.38;;;21.70;99.90;;;;;;5032182;28;20033;-65
2021/06/27 06:13:43;;;;;;;7.50;5.88;;;21.50;99.90;;;;;;5033649;28;20036;-67
2021/06/27 06:16:11;;;;;;;7.80;5.72;;;21.70;99.90;;;;;;5033160;28;20033;-66
2021/06/27 06:18:41;;;;;;;10.40;6.22;;;21.70;99.90;;;;;;5033547;28;20033;-66
2021/06/27 06:21:06;;;;;;;11.05;6.30;;;21.80;99.90;;;;;;5032977;28;20158;-64
2021/06/27 06:23:32;;;;;;;13.90;5.80;;;22.00;99.90;;;;;;5032105;28;20041;-64
2021/06/27 06:25:58;;;;;;;8.45;6.10;;;22.00;99.90;;;;;;5033326;28;20029;-65
2021/06/27 06:28:24;;;;;;;8.73;6.28;;;22.00;99.90;;;;;;5033149;28;20087;-65
2021/06/27 06:30:49;;;;;;;10.13;6.05;;;22.00;99.90;;;;;;5033094;28;20120;-65
2021/06/27 06:33:15;;;;;;;9.18;6.10;;;22.00;99.90;;;;;;5030935;28;20034;-64
2021/06/27 06:35:43;;;;;;;8.55;5.82;;;22.10;99.90;;;;;;5033034;28;20544;-64
2021/06/27 06:38:10;;;;;;;9.40;6.47;;;21.90;99.90;;;;;;5031781;28;20064;-65
2021/06/27 06:40:40;;;;;;;10.00;6.55;;;21.80;99.90;;;;;;5020790;28;20046;-65
2021/06/27 06:43:06;;;;;;;14.57;5.95;;;21.90;99.90;;;;;;5013420;28;20467;-65
2021/06/27 06:45:33;;;;;;;6.97;5.55;;;21.80;99.90;;;;;;5013144;28;20038;-65
2021/06/27 06:48:00;;;;;;;8.00;5.70;;;21.90;99.90;;;;;;5013114;28;20026;-65
2021/06/27 06:50:26;;;;;;;7.88;5.78;;;22.10;99.90;;;;;;5013218;28;20127;-64
2021/06/27 06:52:52;;;;;;;8.05;5.53;;;22.30;99.90;;;;;;5013010;28;20029;-66
2021/06/27 06:55:21;;;;;;;8.32;5.20;;;22.50;99.90;;;;;;5012994;28;20747;-64
2021/06/27 06:57:47;;;;;;;6.85;5.20;;;22.60;99.90;;;;;;4995993;28;20038;-65
2021/06/27 07:00:14;;;;;;;7.90;5.90;;;22.70;99.90;;;;;;4995632;28;20103;-65
2021/06/27 07:02:40;;;;;;;7.68;5.53;;;22.80;99.90;;;;;;5025393;28;20036;-64
2021/06/27 07:05:08;;;;;;;7.57;5.60;;;22.70;99.90;;;;;;5030725;28;20103;-65
2021/06/27 07:07:34;;;;;;;8.32;5.82;;;22.80;99.90;;;;;;5032671;28;20053;-65
2021/06/27 07:10:01;;;;;;;8.55;5.68;;;23.00;99.90;;;;;;5032636;28;20084;-65
2021/06/27 07:12:26;;;;;;;9.55;6.47;;;23.00;99.90;;;;;;5032254;28;20041;-65
2021/06/27 07:14:52;;;;;;;9.25;6.75;;;22.90;99.90;;;;;;5032678;28;20030;-65
2021/06/27 07:17:18;;;;;;;10.43;7.18;;;22.70;99.90;;;;;;5032230;28;20112;-65
2021/06/27 07:19:43;;;;;;;9.18;6.40;;;22.60;99.90;;;;;;5032330;28;20374;-64
2021/06/27 07:22:09;;;;;;;8.77;6.35;;;22.70;99.90;;;;;;5032061;28;20530;-65
2021/06/27 07:24:35;;;;;;;11.65;6.72;;;22.90;99.90;;;;;;5032163;28;20021;-65
2021/06/27 07:27:02;;;;;;;10.07;6.15;;;23.00;99.90;;;;;;5031966;28;20033;-65
2021/06/27 07:29:28;;;;;;;7.57;5.70;;;23.10;99.90;;;;;;5031766;28;20033;-65
2021/06/27 07:31:54;;;;;;;8.75;6.10;;;23.00;99.90;;;;;;5031227;28;20087;-65
2021/06/27 07:34:21;;;;;;;9.95;5.63;;;23.10;99.90;;;;;;5031522;28;20029;-65
2021/06/27 07:36:47;;;;;;;8.18;5.45;;;23.00;99.90;;;;;;5031359;28;20121;-66
2021/06/27 07:39:14;;;;;;;8.57;5.75;;;23.10;99.90;;;;;;5030403;28;20041;-65
2021/06/27 07:41:39;;;;;;;10.32;5.95;;;23.20;99.90;;;;;;5031940;28;20079;-66
2021/06/27 07:44:05;;;;;;;9.10;5.28;;;23.30;99.90;;;;;;5030904;28;20100;-65
2021/06/27 07:46:31;;;;;;;7.38;4.88;;;23.50;99.90;;;;;;5032214;28;20044;-65
2021/06/27 07:48:57;;;;;;;6.13;4.85;;;23.60;99.90;;;;;;5031801;28;20029;-66
2021/06/27 07:51:23;;;;;;;6.30;4.70;;;23.60;99.90;;;;;;5032078;28;20057;-65
2021/06/27 07:53:49;;;;;;;7.10;4.05;;;23.70;99.90;;;;;;5032069;28;20120;-65
2021/06/27 07:56:14;;;;;;;6.55;4.70;;;23.70;99.90;;;;;;5030342;28;20030;-65
2021/06/27 07:58:40;;;;;;;13.07;7.88;;;23.80;99.90;;;;;;5031880;28;20044;-66
2021/06/27 08:01:06;;;;;;;6.38;4.90;;;23.90;99.90;;;;;;4964327;28;20041;-65
2021/06/27 08:03:32;;;;;;;6.30;4.43;;;23.90;99.90;;;;;;5012093;28;20084;-65
2021/06/27 08:05:57;;;;;;;10.98;5.65;;;24.00;99.90;;;;;;5012317;28;20121;-65
2021/06/27 08:08:23;;;;;;;6.30;4.70;;;23.90;99.90;;;;;;4994420;28;20030;-65
2021/06/27 08:10:49;;;;;;;7.15;4.00;;;23.90;99.90;;;;;;5012011;28;20041;-66
2021/06/27 08:13:15;;;;;;;6.47;4.53;;;24.00;99.90;;;;;;5012015;28;20029;-66
2021/06/27 08:15:41;;;;;;;6.53;4.03;;;24.20;99.90;;;;;;5012358;28;20065;-64
2021/06/27 08:18:06;;;;;;;6.35;3.92;;;24.20;99.90;;;;;;5015646;28;20037;-65
2021/06/27 08:20:32;;;;;;;7.22;4.43;;;24.30;99.90;;;;;;5016007;28;20505;-63
2021/06/27 08:22:58;;;;;;;6.93;5.00;;;24.30;99.90;;;;;;5015985;28;20033;-64
2021/06/27 08:25:24;;;;;;;6.75;4.35;;;24.40;99.90;;;;;;5015934;28;20030;-64
2021/06/27 08:27:51;;;;;;;5.43;4.45;;;24.50;99.90;;;;;;4998213;28;20387;-63
2021/06/27 08:30:19;;;;;;;6.97;4.63;;;24.60;99.90;;;;;;5015426;28;20482;-62
2021/06/27 08:32:46;;;;;;;6.00;3.95;;;24.60;99.90;;;;;;5028716;28;20037;-62
2021/06/27 08:35:18;;;;;;;5.75;4.13;;;24.60;99.90;;;;;;5034986;28;20367;-65
2021/06/27 08:37:46;;;;;;;8.02;4.03;;;24.70;99.90;;;;;;5031878;28;20466;-65
2021/06/27 08:40:14;;;;;;;9.15;6.43;;;24.90;99.90;;;;;;5015425;28;20048;-65
2021/06/27 08:42:41;;;;;;;6.22;3.90;;;25.00;99.90;;;;;;5015317;28;20386;-70
2021/06/27 08:45:09;;;;;;;8.23;4.25;;;25.20;99.90;;;;;;5015109;28;20037;-68
2021/06/27 08:47:37;;;;;;;7.30;4.13;;;25.40;99.90;;;;;;5013421;28;20029;-73
2021/06/27 08:50:07;;;;;;;5.85;3.60;;;25.50;99.80;;;;;;5017183;28;20406;-66
2021/06/27 08:52:33;;;;;;;5.68;4.00;;;25.60;99.90;;;;;;5017521;28;20030;-67
2021/06/27 08:55:00;;;;;;;5.85;4.07;;;25.60;99.50;;;;;;5036913;28;20033;-72
2021/06/27 08:57:26;;;;;;;8.75;4.85;;;25.70;99.90;;;;;;5034943;28;20030;-70
2021/06/27 08:59:53;;;;;;;8.23;4.30;;;25.80;99.90;;;;;;5032758;28;20072;-71
2021/06/27 09:02:20;;;;;;;9.30;4.47;;;26.00;99.90;;;;;;5016900;28;20461;-72
2021/06/27 09:04:46;;;;;;;5.40;3.47;;;26.10;98.80;;;;;;5015205;28;20483;-70
2021/06/27 09:07:30;;;;;;;4.85;3.30;;;26.20;98.00;;;;;;5014950;28;20394;-70
2021/06/27 09:10:03;;;;;;;7.00;3.53;;;26.30;97.40;;;;;;5014825;28;20084;-70
2021/06/27 09:12:48;;;;;;;4.97;3.17;;;26.40;97.90;;;;;;5014795;28;20030;-70
2021/06/27 09:15:53;;;;;;;6.43;3.28;;;26.40;97.50;;;;;;4997268;28;20497;-70
2021/06/27 09:18:19;;;;;;;5.20;3.30;;;26.50;97.30;;;;;;5014482;28;20081;-71
2021/06/27 09:20:48;;;;;;;3.90;2.80;;;26.40;97.00;;;;;;5013272;28;20367;-71
2021/06/27 09:23:17;;;;;;;3.75;2.60;;;26.50;95.40;;;;;;5014594;28;20378;-71
2021/06/27 09:25:45;;;;;;;3.63;2.75;;;26.50;96.70;;;;;;5014658;28;20037;-70
2021/06/27 09:28:17;;;;;;;5.55;3.33;;;26.50;97.50;;;;;;5014062;28;20149;-71
2021/06/27 09:30:52;;;;;;;4.20;2.53;;;26.60;96.70;;;;;;5014622;28;20029;-70
2021/06/27 09:33:30;;;;;;;3.35;2.55;;;26.80;96.20;;;;;;5014619;28;20466;-70
2021/06/27 09:36:09;;;;;;;3.13;2.53;;;27.10;95.00;;;;;;4997176;28;20502;-69
2021/06/27 09:38:50;;;;;;;3.20;2.50;;;27.10;94.80;;;;;;4997492;28;20475;-72
2021/06/27 09:41:36;;;;;;;4.47;2.20;;;27.00;94.30;;;;;;5014312;28;20038;-68
2021/06/27 09:44:07;;;;;;;3.13;2.20;;;26.80;94.70;;;;;;4997556;28;20087;-68
2021/06/27 09:46:47;;;;;;;3.22;2.25;;;27.00;94.30;;;;;;5014469;28;20037;-70
2021/06/27 09:49:15;;;;;;;3.30;2.47;;;27.20;95.20;;;;;;4997612;28;20026;-71
2021/06/27 09:51:51;;;;;;;3.97;2.15;;;27.50;92.80;;;;;;5012833;28;20038;-68
2021/06/27 09:54:23;;;;;;;3.17;2.45;;;27.50;92.40;;;;;;5013854;28;20065;-70
2021/06/27 09:56:50;;;;;;;3.65;2.33;;;27.50;92.80;;;;;;5015901;28;20091;-71
2021/06/27 09:59:22;;;;;;;3.65;2.45;;;27.30;93.10;;;;;;5027057;28;20033;-73
2021/06/27 10:01:48;;;;;;;3.85;2.30;;;27.40;93.50;;;;;;5022032;28;20069;-74
2021/06/27 10:04:27;;;;;;;3.28;2.55;;;27.50;93.20;;;;;;5013435;28;20042;-72
2021/06/27 10:06:56;;;;;;;2.50;2.00;;;27.50;92.70;;;;;;4990053;28;20033;-75
2021/06/27 10:09:29;;;;;;;3.67;2.47;;;27.80;92.30;;;;;;5033800;28;20033;-77
2021/06/27 10:12:19;;;;;;;4.00;2.35;;;27.70;92.40;;;;;;5029664;28;20038;-72
2021/06/27 10:14:51;;;;;;;3.13;2.07;;;28.00;92.90;;;;;;5016296;28;20375;-71
2021/06/27 10:17:19;;;;;;;3.10;2.40;;;28.30;91.80;;;;;;5033707;28;20386;-75
2021/06/27 10:19:46;;;;;;;3.78;2.58;;;28.10;92.10;;;;;;5033312;28;20033;-70
2021/06/27 10:22:12;;;;;;;2.83;2.00;;;28.10;91.90;;;;;;5033482;28;20033;-72
2021/06/27 10:24:38;;;;;;;3.45;2.30;;;28.20;92.00;;;;;;5033278;28;20033;-71
2021/06/27 10:27:08;;;;;;;3.45;2.10;;;28.10;91.20;;;;;;5033451;28;20079;-71
2021/06/27 10:29:41;;;;;;;3.35;2.30;;;28.10;91.10;;;;;;5015922;28;20116;-70
2021/06/27 10:32:09;;;;;;;2.95;2.08;;;28.10;91.30;;;;;;5016144;28;20034;-67
2021/06/27 10:34:35;;;;;;;3.03;2.13;;;28.20;91.00;;;;;;5015551;28;20037;-74
2021/06/27 10:37:15;;;;;;;3.22;2.10;;;27.80;91.30;;;;;;5033036;28;20036;-73
2021/06/27 10:40:10;;;;;;;2.70;2.03;;;27.90;90.90;;;;;;4998607;28;20052;-70
2021/06/27 10:42:53;;;;;;;3.47;2.20;;;28.30;90.90;;;;;;5033191;28;20080;-74
2021/06/27 10:45:52;;;;;;;2.85;1.92;;;28.10;90.20;;;;;;5000207;28;20091;-70
2021/06/27 10:48:33;;;;;;;3.30;2.25;;;28.10;90.80;;;;;;5012840;28;20069;-68
2021/06/27 10:51:05;;;;;;;3.15;1.90;;;28.20;90.60;;;;;;5013113;28;20562;-73
2021/06/27 10:54:09;;;;;;;3.40;1.92;;;28.30;88.40;;;;;;4995081;28;20451;-79
2021/06/27 10:57:04;;;;;;;2.95;1.98;;;28.30;89.70;;;;;;5012291;28;20050;-79
2021/06/27 10:59:39;;;;;;;3.10;1.90;;;28.40;88.30;;;;;;5013002;28;20037;-72
2021/06/27 11:02:24;;;;;;;5.63;2.67;;;28.30;89.00;;;;;;5012765;28;20474;-68
2021/06/27 11:04:55;;;;;;;3.20;2.03;;;28.50;88.70;;;;;;5012621;28;20052;-68
2021/06/27 11:07:48;;;;;;;3.72;2.10;;;28.50;88.70;;;;;;4995183;28;20041;-68
2021/06/27 11:10:20;;;;;;;3.65;1.85;;;28.80;88.30;;;;;;4993924;28;20573;-68
2021/06/27 11:12:57;;;;;;;3.08;2.08;;;28.70;86.50;;;;;;5010436;28;20487;-68
2021/06/27 11:15:38;;;;;;;3.90;2.10;;;28.60;88.20;;;;;;5011067;28;20391;-68
2021/06/27 11:18:09;;;;;;;3.30;2.00;;;28.40;86.70;;;;;;4994841;28;20022;-67
2021/06/27 11:20:55;;;;;;;2.70;2.00;;;28.40;87.40;;;;;;4995038;28;20108;-67
2021/06/27 11:23:52;;;;;;;3.60;1.73;;;28.40;89.30;;;;;;5012161;28;20037;-67
2021/06/27 11:26:54;;;;;;;4.32;2.17;;;28.80;87.20;;;;;;5012150;28;20032;-67
2021/06/27 11:29:23;;;;;;;2.72;1.88;;;28.60;87.40;;;;;;4996582;28;20080;-67
2021/06/27 11:31:51;;;;;;;4.10;1.95;;;28.40;87.60;;;;;;5012499;28;20040;-67
2021/06/27 11:34:30;;;;;;;3.17;2.30;;;28.30;88.70;;;;;;4995142;28;20030;-67
2021/06/27 11:37:17;;;;;;;4.20;2.40;;;28.30;88.60;;;;;;5030455;28;20030;-66
2021/06/27 11:39:49;;;;;;;3.08;2.10;;;28.40;88.60;;;;;;5031996;28;20033;-66
2021/06/27 11:42:27;;;;;;;4.00;2.33;;;28.50;89.10;;;;;;5030527;28;20471;-66
2021/06/27 11:45:05;;;;;;;3.65;2.40;;;28.50;90.10;;;;;;5031901;28;20041;-66
2021/06/27 11:47:51;;;;;;;5.25;2.13;;;28.60;88.50;;;;;;5031844;28;20087;-67
2021/06/27 11:50:22;;;;;;;3.47;2.10;;;28.80;87.50;;;;;;5022493;28;20498;-67
2021/06/27 11:53:13;;;;;;;2.72;1.95;;;28.80;86.60;;;;;;5035043;28;20041;-67
2021/06/27 11:56:03;;;;;;;3.03;2.05;;;29.00;86.30;;;;;;5035899;28;20030;-67
2021/06/27 11:58:30;;;;;;;2.90;2.10;;;29.30;86.20;;;;;;5034666;28;20091;-68
2021/06/27 12:00:56;;;;;;;3.90;2.30;;;29.10;87.10;;;;;;5033819;28;20114;-67
2021/06/27 12:03:24;;;;;;;2.80;2.08;;;29.20;86.70;;;;;;5036073;28;20609;-66
2021/06/27 12:06:02;;;;;;;3.28;2.33;;;29.20;87.90;;;;;;5018095;28;20445;-66
2021/06/27 12:08:29;;;;;;;3.13;2.20;;;29.50;86.40;;;;;;5001936;28;20041;-66
2021/06/27 12:10:59;;;;;;;2.63;2.10;;;29.70;87.60;;;;;;5034381;28;20164;-66
2021/06/27 12:13:27;;;;;;;2.90;2.33;;;29.60;87.80;;;;;;5018249;28;20057;-66
2021/06/27 12:15:58;;;;;;;9.05;5.25;;;29.60;86.70;;;;;;5017972;28;20036;-65
2021/06/27 12:18:32;;;;;;;3.45;2.30;;;29.70;87.50;;;;;;5018567;28;20083;-67
2021/06/27 12:21:08;;;;;;;2.67;2.00;;;29.90;84.60;;;;;;5035804;28;20079;-67
2021/06/27 12:23:45;;;;;;;2.85;2.13;;;30.50;85.90;;;;;;5021471;28;20111;-67
2021/06/27 12:26:20;;;;;;;3.47;2.50;;;30.40;85.30;;;;;;4998326;28;20497;-67
2021/06/27 12:28:55;;;;;;;4.88;2.25;;;30.30;85.80;;;;;;4998152;28;20057;-67
2021/06/27 12:31:24;;;;;;;3.00;2.22;;;30.10;84.60;;;;;;5014468;28;20548;-67
2021/06/27 12:34:00;;;;;;;3.10;2.47;;;30.30;82.00;;;;;;4999802;28;20038;-67
2021/06/27 12:36:46;;;;;;;2.90;2.00;;;30.30;83.00;;;;;;5018015;28;20029;-67
2021/06/27 12:39:18;;;;;;;2.53;1.80;;;30.60;79.90;;;;;;5034091;28;20044;-67
2021/06/27 12:41:44;;;;;;;4.88;2.40;;;31.10;75.40;;;;;;5014412;28;20026;-66
2021/06/27 12:44:14;;;;;;;3.13;2.13;;;30.90;82.80;;;;;;5015343;28;20042;-68
2021/06/27 12:46:49;;;;;;;2.67;2.07;;;31.00;80.50;;;;;;5014305;28;20104;-66
2021/06/27 12:49:31;;;;;;;3.25;2.30;;;31.10;79.70;;;;;;5015164;28;20288;-67
2021/06/27 12:51:57;;;;;;;3.38;2.17;;;31.50;79.90;;;;;;5013943;28;20038;-67
2021/06/27 12:54:30;;;;;;;3.03;2.08;;;31.30;79.70;;;;;;5015356;28;20157;-67
2021/06/27 12:57:03;;;;;;;2.92;2.38;;;31.10;83.40;;;;;;4981459;28;20502;-66
2021/06/27 12:59:35;;;;;;;2.95;2.42;;;31.30;84.30;;;;;;5015218;28;20537;-67